Terminal Aerodrome Forecast
Issued by NWS

Home | Current Version | Previous Version | Text Only | Print | Product List | Glossary Off
Versions: 1 2 3 4 5 6 7 8 9 10 11 12 13 14 15 16 17 18 19 20 21 22 23 24 25 26 27 28 29 30 31 32

000
FTUS43 KLOT 290800 AAA
TAFDPA
TAF AMD
KDPA 290828Z 2908/3006 16006KT 6SM BR OVC100
     FM291000 16004KT 4SM BR SCT050 BKN120
     FM291300 17009KT P6SM BKN050 OVC080
     FM291700 19013G20KT P6SM VCSH SCT060 BKN150 PROB30 2919/2923
      5SM TSRA BR BKN050CB
     FM300200 18010KT P6SM BKN050 OVC100=

USA.gov is the U.S. government's official web portal to all federal, state and local government web resources and services.